• Join FlightAware (Why Join?)
  • Login
  • US Flag 
05:16AM EDT


 

Airport Tracker/Info


-or-


 

Live Flight TrackerFlight Track Log ✈ GJS3707 ✈ 30-Mar-2014 ✈ KORD - KPHL

Flight Track Log - Related Links

Times and Time Zones

All times are in EDT time to prevent confusion due to time zone crossing. See the GJS3707 flight status page for this flight to view local times or setup timezone preferences in your user account.

Time Position Orientation Groundspeed Altitude Reporting Facility
EDT Latitude Longitude Course Direction KTS MPH feet Rate Location/Type
10:28PM 41.9667 -87.9500 14° North 168 193 1,700  Level Chicago TRACON
10:29PM 42.0167 -87.9333 14° North 231 266 3,700 2,100 Climbing Chicago TRACON
10:30PM 42.0167 -87.8500 90° East 287 330 5,900 2,460 Climbing Chicago TRACON
10:31PM 41.9833 -87.7500 114° Southeast 285 328 8,900 2,580 Climbing Chicago TRACON
10:33PM 41.9767 -87.5556 93° East 298 343 13,500 2,400 Climbing Chicago Center
10:34PM 41.9692 -87.4386 95° East 307 353 15,800 1,920 Climbing Chicago Center
10:35PM 41.9603 -87.3083 95° East 344 396 17,500 1,800 Climbing Chicago Center
10:36PM 41.9514 -87.1744 95° East 356 410 19,600 1,560 Climbing Chicago Center
10:37PM 41.9314 -87.0342 101° East 376 433 20,700 1,020 Climbing Chicago Center
10:38PM 41.9106 -86.8811 100° East 411 473 21,700 1,020 Climbing Chicago Center
10:39PM 41.8897 -86.7192 100° East 437 503 22,800 1,320 Climbing Chicago Center
10:40PM 41.8647 -86.5350 100° East 450 518 24,500 1,620 Climbing Chicago Center
10:41PM 41.8431 -86.3706 100° East 450 518 26,200 1,380 Climbing Chicago Center
10:42PM 41.8203 -86.2047 100° East 452 520 27,400 1,080 Climbing Chicago Center
10:43PM 41.7956 -86.0339 101° East 463 533 28,400 900 Climbing Chicago Center
10:44PM 41.7719 -85.8606 100° East 469 540 29,300 780 Climbing Chicago Center
10:45PM 41.7469 -85.6814 101° East 484 557 30,000 840 Climbing Chicago Center
10:46PM 41.7217 -85.4983 100° East 490 564 31,100 1,140 Climbing Chicago Center
10:47PM 41.6903 -85.3014 102° East 491 565 32,400 1,260 Climbing Chicago Center
10:48PM 41.6678 -85.1261 100° East 498 573 33,700 1,020 Climbing Chicago Center
10:49PM 41.6411 -84.9503 101° East 488 562 34,600 780 Climbing Chicago Center
10:50PM 41.6142 -84.7722 101° East 488 562 35,400 840 Climbing Chicago Center
10:51PM 41.5814 -84.5564 101° East 492 566 36,400 780 Climbing Chicago Center
10:52PM 41.5539 -84.3797 102° East 491 565 37,000 240 Climbing Chicago Center
10:53PM 41.5264 -84.2006 102° East 491 565 37,000  Level Chicago Center
10:54PM 41.5053 -84.0700 102° East 491 565 37,000  Level Cleveland Center
10:55PM 41.4719 -83.8603 102° East 489 563 37,000  Level Cleveland Center
10:56PM 41.4433 -83.6867 102° East 487 560 37,000  Level Cleveland Center
10:57PM 41.4164 -83.5175 102° East 476 548 37,000  Level Cleveland Center
10:58PM 41.3892 -83.3508 102° East 467 537 37,000  Level Cleveland Center
10:59PM 41.3631 -83.1878 102° East 458 527 37,000  Level Cleveland Center
11:00PM 41.3344 -83.0258 103° East 450 518 37,000  Level Cleveland Center
11:01PM 41.3072 -82.8625 102° East 450 518 37,000  Level Cleveland Center
11:02PM 41.2792 -82.6969 103° East 454 522 37,000  Level Cleveland Center
11:03PM 41.2503 -82.5306 103° East 455 524 37,000  Level Cleveland Center
11:04PM 41.2114 -82.3681 108° East 458 527 37,000  Level Cleveland Center
11:05PM 41.1664 -82.1778 107° East 459 528 37,000  Level Cleveland Center
11:06PM 41.1289 -82.0181 107° East 463 533 37,000  Level Cleveland Center
11:07PM 41.0875 -81.8492 108° East 464 534 37,000  Level Cleveland Center
11:08PM 41.0483 -81.6833 107° East 471 542 37,000  Level Cleveland Center
11:09PM 41.0075 -81.5164 108° East 474 545 37,000  Level Cleveland Center
11:10PM 40.9661 -81.3483 108° East 476 548 37,000  Level Cleveland Center
11:11PM 40.9236 -81.1772 108° East 484 557 37,000  Level Cleveland Center
11:12PM 40.8811 -81.0100 109° East 492 566 37,000  Level Cleveland Center
11:13PM 40.8381 -80.8350 108° East 498 573 37,000  Level Cleveland Center
11:14PM 40.7917 -80.6472 108° East 505 581 37,000  Level Cleveland Center
11:15PM 40.7469 -80.4703 108° East 505 581 37,000  Level Cleveland Center
11:16PM 40.7000 -80.2883 109° East 495 570 37,000  Level Cleveland Center
11:17PM 40.6569 -80.1208 109° East 490 564 37,000  Level Cleveland Center
11:18PM 40.6097 -79.9353 108° East 486 559 37,000  Level Cleveland Center
11:19PM 40.5747 -79.7661 105° East 481 554 37,000  Level Cleveland Center
11:21PM 40.5578 -79.5950 97° East 472 543 37,000  Level Cleveland Center
11:22PM 40.5386 -79.4258 98° East 471 542 37,000  Level Cleveland Center
11:23PM 40.5208 -79.2536 98° East 466 536 37,000  Level Cleveland Center
11:24PM 40.5025 -79.0886 98° East 463 533 37,000  Level Cleveland Center
11:25PM 40.4850 -78.9228 98° East 463 533 37,000  Level Cleveland Center
11:26PM 40.4650 -78.7547 99° East 464 534 37,000  Level Cleveland Center
11:27PM 40.4464 -78.5822 98° East 478 550 37,000  Level Cleveland Center
11:28PM 40.4261 -78.4072 99° East 487 560 37,000  Level Cleveland Center
11:29PM 40.4061 -78.2339 99° East 486 559 37,000 -420 Level Cleveland Center
11:30PM 40.3808 -78.0256 99° East 486 559 36,200 -1,020 Descending Cleveland Center
11:30PM 40.3719 -77.9583 100° East 477 549 35,500 -1,620 Descending New York Center
11:31PM 40.3489 -77.7897 100° East 472 543 33,800 -1,800 Descending New York Center
11:32PM 40.3314 -77.6272 98° East 467 537 31,900 -1,440 Descending New York Center
11:33PM 40.3094 -77.4617 100° East 462 532 31,000 -480 Descending New York Center
11:34PM 40.2897 -77.2939 99° East 462 532 31,000 -1,200 Level New York Center
11:35PM 40.2653 -77.1281 101° East 462 532 28,700 -2,640 Descending New York Center
11:36PM 40.2436 -76.9494 99° East 466 536 25,800 -2,520 Descending New York Center
11:37PM 40.2242 -76.8008 100° East 441 507 23,700 -2,160 Descending New York Center
11:38PM 40.2042 -76.6578 100° East 415 478 21,500 -2,160 Descending New York Center
11:39PM 40.1861 -76.5175 100° East 398 458 19,400 -2,100 Descending New York Center
11:40PM 40.1697 -76.3803 99° East 387 445 17,300 -2,040 Descending New York Center
11:41PM 40.1511 -76.2483 100° East 377 434 15,400 -1,800 Descending New York Center
11:42PM 40.1356 -76.1333 100° East 365 420 13,700 -1,800 Descending New York Center
11:43PM 40.1167 -75.9933 100° East 354 407 11,800 -1,800 Descending New York Center
11:44PM 40.0969 -75.8725 102° East 354 407 10,200 -900 Descending New York Center
11:45PM 40.0831 -75.7575 99° East 343 395 10,000 -120 Descending New York Center
11:46PM 40.0742 -75.6211 95° East 343 395 10,000 -420 Level New York Center
11:47PM 40.0697 -75.5258 93° East 313 360 9,200 -1,200 Descending New York Center
11:48PM 40.0658 -75.4144 93° East 283 326 7,600 -1,620 Descending New York Center
11:49PM 40.0667 -75.3167 89° East 272 313 6,200 -1,380 Descending Philadelphia TRACON
11:50PM 40.0500 -75.2333 105° East 255 293 5,000 -1,200 Descending Philadelphia TRACON
11:51PM 40.0167 -75.1333 113° Southeast 240 276 3,600 -960 Descending Philadelphia TRACON
11:52PM 40.0000 -75.0500 105° East 261 300 3,000 -720 Descending Philadelphia TRACON
11:53PM 39.9500 -75.0167 153° Southeast 248 285 2,400 -480 Descending Philadelphia TRACON
11:54PM 39.9000 -75.0667 218° Southwest 174 200 2,100 -180 Descending Philadelphia TRACON
11:55PM 39.9000 -75.1000 270° West 149 171 2,100 -420 Level Philadelphia TRACON
11:56PM 39.8833 -75.1500 247° West 137 158 1,400 -780 Descending Philadelphia TRACON
11:57PM 39.8833 -75.1833 270° West 133 153 700 -780 Descending Philadelphia TRACON
11:59PM 39.8667 -75.2333 247° West  Level FlightAware Approximate
12:06AM 39.8722 -75.2409 247° West  Level Estimated